createdAt,value
2023-05-01T00:01:26.838Z,89.50
2023-05-01T00:04:29.026Z,89.80
2023-05-01T00:07:31.267Z,89.80
2023-05-01T00:10:35.631Z,89.90
2023-05-01T00:13:37.423Z,89.10
2023-05-01T00:16:39.347Z,89.90
2023-05-01T00:19:41.509Z,90.00
2023-05-01T00:22:43.246Z,89.90
2023-05-01T00:25:45.057Z,89.90
2023-05-01T00:28:46.943Z,90.20
2023-05-01T00:31:48.954Z,89.90
2023-05-01T00:34:50.867Z,89.90
2023-05-01T00:37:53.474Z,89.80
2023-05-01T00:40:55.360Z,89.90
2023-05-01T00:43:57.913Z,89.90
2023-05-01T00:47:01.004Z,89.80
2023-05-01T00:50:03.741Z,90.00
2023-05-01T00:53:05.704Z,89.90
2023-05-01T00:56:08.628Z,90.00
2023-05-01T00:59:10.971Z,90.00
2023-05-01T01:02:13.847Z,90.00
2023-05-01T01:05:16.547Z,90.10
2023-05-01T01:08:32.518Z,90.20
2023-05-01T01:11:40.302Z,88.80
2023-05-01T01:14:51.005Z,89.70
2023-05-01T01:17:57.581Z,89.70
2023-05-01T01:21:10.226Z,89.60
2023-05-01T01:24:24.695Z,89.60
2023-05-01T01:27:58.053Z,88.90
2023-05-01T01:31:21.852Z,89.20
2023-05-01T01:34:36.435Z,89.60
2023-05-01T01:37:43.185Z,89.60
2023-05-01T01:41:02.085Z,90.60
2023-05-01T01:44:20.874Z,90.10
2023-05-01T01:47:28.475Z,90.10
2023-05-01T01:50:32.125Z,90.40
2023-05-01T01:53:37.462Z,90.70
2023-05-01T01:56:42.179Z,90.70
2023-05-01T01:59:44.998Z,90.70
2023-05-01T02:02:48.788Z,90.90
2023-05-01T02:05:52.311Z,91.10
2023-05-01T02:08:54.423Z,90.90
2023-05-01T02:11:56.762Z,91.00
2023-05-01T02:15:00.038Z,91.00
2023-05-01T02:18:11.549Z,91.00
2023-05-01T02:21:14.909Z,90.50
2023-05-01T02:24:18.460Z,91.10
2023-05-01T02:27:44.944Z,91.20
2023-05-01T02:30:47.595Z,90.30
2023-05-01T02:33:49.540Z,91.40
2023-05-01T02:36:51.504Z,91.40
2023-05-01T02:39:54.189Z,91.40
2023-05-01T02:42:56.710Z,91.50
2023-05-01T02:45:59.965Z,91.50
2023-05-01T02:49:03.907Z,91.50
2023-05-01T02:52:06.005Z,91.40
2023-05-01T02:55:09.443Z,91.60
2023-05-01T02:58:20.704Z,91.90
2023-05-01T03:01:23.194Z,91.00
2023-05-01T03:04:25.673Z,91.70
2023-05-01T03:07:34.962Z,91.70
2023-05-01T03:10:36.859Z,91.70
2023-05-01T03:13:38.916Z,91.80
2023-05-01T03:16:42.129Z,91.80
2023-05-01T03:19:44.057Z,91.80
2023-05-01T03:22:45.945Z,91.80
2023-05-01T03:25:48.172Z,91.90
2023-05-01T03:28:50.154Z,91.80
2023-05-01T03:31:52.058Z,91.80
2023-05-01T03:34:53.958Z,91.80
2023-05-01T03:37:56.752Z,91.80
2023-05-01T03:41:00.074Z,91.80
2023-05-01T03:44:02.508Z,91.80
2023-05-01T03:47:04.817Z,92.00
2023-05-01T03:50:07.767Z,92.00
2023-05-01T03:53:09.523Z,92.00
2023-05-01T03:56:11.343Z,92.10
2023-05-01T03:59:14.451Z,92.60
2023-05-01T04:02:16.730Z,92.70
2023-05-01T04:05:19.891Z,92.70
2023-05-01T04:08:22.110Z,92.60
2023-05-01T04:11:23.966Z,92.90
2023-05-01T04:14:25.913Z,92.80
2023-05-01T04:17:28.753Z,92.90
2023-05-01T04:20:30.719Z,92.90
2023-05-01T04:23:32.473Z,93.10
2023-05-01T04:26:34.411Z,93.20
2023-05-01T04:29:36.290Z,93.20
2023-05-01T04:32:38.059Z,93.40
2023-05-01T04:35:40.707Z,93.50
2023-05-01T04:38:42.543Z,93.50
2023-05-01T04:41:44.346Z,93.60
2023-05-01T04:44:47.400Z,93.80
2023-05-01T04:47:49.519Z,93.90
2023-05-01T04:50:51.673Z,94.00
2023-05-01T04:53:53.791Z,94.20
2023-05-01T04:56:55.621Z,94.30
2023-05-01T04:59:57.962Z,93.90
2023-05-01T05:03:00.494Z,94.10
2023-05-01T05:06:02.473Z,94.10
2023-05-01T05:09:04.527Z,94.20
2023-05-01T05:12:06.457Z,94.20
2023-05-01T05:15:08.932Z,94.30
2023-05-01T05:18:11.022Z,94.50
2023-05-01T05:21:12.950Z,94.60
2023-05-01T05:24:14.867Z,94.80
2023-05-01T05:27:16.758Z,94.90
2023-05-01T05:30:18.974Z,95.50
2023-05-01T05:33:20.960Z,95.90
2023-05-01T05:36:22.764Z,96.20
2023-05-01T05:39:24.573Z,96.80
2023-05-01T05:42:26.689Z,97.50
2023-05-01T05:45:29.397Z,97.90
2023-05-01T05:48:32.606Z,98.40
2023-05-01T05:51:34.884Z,98.70
2023-05-01T05:54:36.684Z,99.60
2023-05-01T05:57:38.552Z,99.90
2023-05-01T06:00:42.229Z,99.80
2023-05-01T06:03:44.524Z,99.10
2023-05-01T06:06:46.973Z,98.30
2023-05-01T06:09:49.496Z,97.10
2023-05-01T06:12:56.945Z,96.30
2023-05-01T06:16:07.889Z,95.40
2023-05-01T06:19:12.126Z,94.60
2023-05-01T06:22:13.909Z,94.10
2023-05-01T06:25:15.944Z,94.00
2023-05-01T06:28:17.861Z,93.60
2023-05-01T06:31:19.949Z,93.60
2023-05-01T06:34:21.968Z,93.80
2023-05-01T06:37:23.950Z,94.20
2023-05-01T06:40:25.793Z,94.40
2023-05-01T06:43:30.837Z,94.50
2023-05-01T06:46:32.906Z,94.40
2023-05-01T06:49:34.900Z,94.00
2023-05-01T06:52:36.993Z,93.90
2023-05-01T06:55:38.791Z,93.30
2023-05-01T06:58:40.682Z,93.20
2023-05-01T07:01:42.565Z,93.10
2023-05-01T07:04:45.285Z,93.40
2023-05-01T07:07:57.823Z,93.40
2023-05-01T07:11:03.056Z,93.60
2023-05-01T07:14:04.901Z,93.90
2023-05-01T07:17:07.406Z,94.40
2023-05-01T07:20:10.741Z,95.10
2023-05-01T07:23:12.636Z,95.70
2023-05-01T07:26:14.443Z,96.20
2023-05-01T07:29:16.654Z,96.60
2023-05-01T07:32:18.601Z,96.60
2023-05-01T07:35:20.782Z,95.70
2023-05-01T07:38:22.591Z,95.10
2023-05-01T07:41:25.399Z,94.60
2023-05-01T07:44:28.074Z,94.10
2023-05-01T07:47:30.194Z,93.90
2023-05-01T07:50:32.592Z,93.80
2023-05-01T07:53:34.472Z,93.80
2023-05-01T07:56:36.464Z,93.30
2023-05-01T07:59:38.446Z,93.10
2023-05-01T08:02:41.353Z,92.90
2023-05-01T08:05:43.542Z,93.10
2023-05-01T08:08:45.682Z,93.20
2023-05-01T08:11:47.539Z,94.00
2023-05-01T08:14:49.387Z,94.20
2023-05-01T08:17:51.694Z,93.50
2023-05-01T08:20:53.722Z,92.90
2023-05-01T08:23:58.966Z,92.00
2023-05-01T08:27:01.069Z,91.70
2023-05-01T08:30:03.235Z,92.20
2023-05-01T08:33:05.085Z,92.20
2023-05-01T08:36:07.548Z,91.80
2023-05-01T08:39:09.617Z,91.50
2023-05-01T08:42:12.076Z,91.50
2023-05-01T08:45:16.037Z,91.10
2023-05-01T08:48:21.212Z,90.90
2023-05-01T08:51:24.229Z,90.60
2023-05-01T08:54:29.859Z,90.50
2023-05-01T08:57:33.529Z,89.00
2023-05-01T09:00:37.146Z,90.00
2023-05-01T09:03:39.125Z,90.00
2023-05-01T09:06:41.298Z,90.20
2023-05-01T09:09:44.134Z,89.10
2023-05-01T09:12:49.651Z,88.60
2023-05-01T09:15:51.532Z,88.80
2023-05-01T09:18:55.023Z,90.60
2023-05-01T09:21:57.114Z,90.70
2023-05-01T09:24:59.440Z,91.30
2023-05-01T09:28:01.910Z,91.30
2023-05-01T09:31:21.935Z,91.60
2023-05-01T09:34:23.868Z,86.70
2023-05-01T09:37:31.430Z,91.10
2023-05-01T09:40:33.438Z,88.60
2023-05-01T09:43:35.289Z,90.40
2023-05-01T09:46:42.813Z,90.20
2023-05-01T09:49:48.217Z,86.50
2023-05-01T09:52:52.577Z,89.10
2023-05-01T09:56:02.263Z,88.70
2023-05-01T09:59:19.522Z,85.20
2023-05-01T10:02:30.957Z,83.40
2023-05-01T10:05:44.318Z,84.50
2023-05-01T10:08:46.572Z,84.00
2023-05-01T10:11:50.207Z,88.90
2023-05-01T10:14:56.623Z,88.80
2023-05-01T10:17:59.212Z,87.90
2023-05-01T10:21:01.460Z,89.20
2023-05-01T10:24:05.787Z,88.90
2023-05-01T10:27:08.733Z,87.70
2023-05-01T10:30:11.237Z,87.40
2023-05-01T10:33:14.309Z,87.80
2023-05-01T10:36:20.967Z,87.70
2023-05-01T10:39:36.546Z,85.70
2023-05-01T10:43:13.491Z,83.10
2023-05-01T10:46:21.373Z,81.30
2023-05-01T10:49:23.421Z,87.90
2023-05-01T10:52:25.399Z,87.20
2023-05-01T10:55:37.588Z,86.20
2023-05-01T10:58:39.327Z,82.30
2023-05-01T11:01:45.377Z,85.00
2023-05-01T11:04:51.220Z,82.50
2023-05-01T11:08:34.299Z,84.50
2023-05-01T11:11:36.248Z,79.30
2023-05-01T11:15:08.797Z,85.30
2023-05-01T11:18:12.381Z,78.70
2023-05-01T11:21:16.126Z,84.70
2023-05-01T11:24:19.042Z,82.70
2023-05-01T11:27:21.808Z,84.10
2023-05-01T11:30:23.843Z,83.80
2023-05-01T11:33:26.288Z,84.10
2023-05-01T11:36:29.029Z,84.70
2023-05-01T11:39:30.911Z,84.20
2023-05-01T11:42:33.326Z,84.10
2023-05-01T11:45:37.101Z,83.70
2023-05-01T11:48:39.364Z,82.90
2023-05-01T11:51:41.327Z,83.80
2023-05-01T11:54:49.314Z,83.40
2023-05-01T11:57:52.694Z,79.80
2023-05-01T12:00:54.533Z,81.40
2023-05-01T12:03:56.379Z,81.90
2023-05-01T12:06:58.445Z,82.70
2023-05-01T12:10:00.810Z,82.90
2023-05-01T12:13:04.171Z,82.90
2023-05-01T12:16:06.702Z,81.50
2023-05-01T12:19:09.293Z,82.30
2023-05-01T12:22:11.340Z,81.80
2023-05-01T12:25:14.497Z,82.90
2023-05-01T12:28:20.067Z,81.50
2023-05-01T12:31:22.832Z,81.10
2023-05-01T12:34:32.378Z,81.50
2023-05-01T12:37:34.921Z,78.90
2023-05-01T12:40:37.143Z,80.30
2023-05-01T12:43:39.222Z,79.10
2023-05-01T12:46:41.293Z,79.10
2023-05-01T12:49:43.274Z,79.80
2023-05-01T12:52:45.219Z,80.10
2023-05-01T12:55:49.161Z,80.60
2023-05-01T12:58:53.577Z,80.90
2023-05-01T13:02:02.380Z,81.70
2023-05-01T13:05:12.103Z,82.10
2023-05-01T13:08:13.985Z,82.10
2023-05-01T13:11:17.214Z,83.00
2023-05-01T13:14:19.062Z,83.50
2023-05-01T13:17:27.958Z,83.90
2023-05-01T13:20:30.305Z,83.40
2023-05-01T13:23:32.395Z,85.20
2023-05-01T13:26:35.922Z,86.20
2023-05-01T13:29:39.359Z,87.50
2023-05-01T13:32:42.399Z,87.10
2023-05-01T13:35:44.265Z,87.60
2023-05-01T13:38:53.838Z,88.70
2023-05-01T13:41:56.085Z,89.00
2023-05-01T13:44:58.191Z,89.70
2023-05-01T13:48:00.199Z,89.80
2023-05-01T13:51:02.068Z,90.00
2023-05-01T13:54:04.482Z,90.10
2023-05-01T13:57:06.305Z,90.30
2023-05-01T14:00:10.812Z,90.60
2023-05-01T14:03:15.510Z,90.90
2023-05-01T14:06:21.238Z,91.20
2023-05-01T14:09:23.179Z,91.50
2023-05-01T14:12:28.202Z,91.90
2023-05-01T14:15:30.698Z,92.00
2023-05-01T14:18:33.637Z,92.30
2023-05-01T14:21:42.500Z,92.40
2023-05-01T14:24:44.417Z,92.30
2023-05-01T14:27:46.192Z,92.60
2023-05-01T14:30:50.140Z,92.80
2023-05-01T14:34:06.362Z,93.00
2023-05-01T14:37:09.402Z,93.00
2023-05-01T14:40:15.047Z,93.40
2023-05-01T14:43:18.628Z,93.50
2023-05-01T14:46:49.593Z,93.70
2023-05-01T14:49:54.459Z,93.30
2023-05-01T14:52:57.958Z,94.00
2023-05-01T14:56:00.098Z,94.30
2023-05-01T14:59:01.885Z,94.40
2023-05-01T15:02:03.730Z,94.60
2023-05-01T15:05:06.053Z,94.70
2023-05-01T15:08:09.101Z,94.70
2023-05-01T15:11:12.711Z,94.50
2023-05-01T15:14:14.495Z,94.60
2023-05-01T15:17:16.276Z,94.60
2023-05-01T15:20:18.200Z,94.50
2023-05-01T15:23:20.265Z,94.50
2023-05-01T15:26:22.194Z,94.40
2023-05-01T15:29:24.204Z,94.40
2023-05-01T15:32:26.199Z,94.50
2023-05-01T15:35:28.088Z,94.60
2023-05-01T15:38:30.368Z,94.40
2023-05-01T15:41:32.194Z,94.50
2023-05-01T15:44:34.108Z,94.70
2023-05-01T15:47:36.049Z,94.90
2023-05-01T15:50:39.970Z,95.10
2023-05-01T15:53:41.774Z,95.30
2023-05-01T15:56:43.578Z,95.30
2023-05-01T15:59:45.423Z,95.40
2023-05-01T16:02:47.609Z,95.60
2023-05-01T16:05:49.551Z,95.70
2023-05-01T16:08:51.674Z,95.70
2023-05-01T16:11:53.517Z,95.90
2023-05-01T16:14:55.604Z,96.00
2023-05-01T16:17:57.592Z,96.20
2023-05-01T16:20:59.615Z,96.40
2023-05-01T16:24:01.978Z,96.50
2023-05-01T16:27:03.909Z,96.60
2023-05-01T16:30:06.490Z,96.80
2023-05-01T16:33:18.576Z,96.80
2023-05-01T16:36:21.757Z,96.90
2023-05-01T16:39:24.321Z,97.20
2023-05-01T16:42:26.214Z,97.40
2023-05-01T16:45:28.381Z,97.50
2023-05-01T16:48:31.616Z,97.40
2023-05-01T16:51:33.433Z,97.50
2023-05-01T16:54:38.242Z,97.70
2023-05-01T16:57:41.725Z,97.70
2023-05-01T17:00:44.875Z,97.80
2023-05-01T17:03:46.837Z,97.90
2023-05-01T17:06:48.904Z,98.00
2023-05-01T17:09:50.994Z,98.00
2023-05-01T17:12:52.766Z,98.20
2023-05-01T17:15:54.718Z,98.20
2023-05-01T17:18:56.613Z,98.20
2023-05-01T17:21:58.445Z,98.30
2023-05-01T17:25:02.475Z,98.30
2023-05-01T17:28:04.464Z,98.40
2023-05-01T17:31:06.345Z,98.50
2023-05-01T17:34:08.207Z,98.60
2023-05-01T17:37:10.164Z,98.70
2023-05-01T17:40:12.424Z,98.80
2023-05-01T17:43:14.147Z,98.90
2023-05-01T17:46:17.077Z,98.90
2023-05-01T17:49:18.967Z,99.00
2023-05-01T17:52:21.087Z,99.10
2023-05-01T17:55:23.836Z,99.10
2023-05-01T17:58:25.608Z,99.10
2023-05-01T18:01:28.322Z,99.10
2023-05-01T18:04:30.203Z,99.00
2023-05-01T18:07:32.074Z,99.10
2023-05-01T18:10:36.797Z,99.00
2023-05-01T18:13:39.968Z,98.90
2023-05-01T18:16:42.094Z,99.00
2023-05-01T18:19:44.263Z,99.10
2023-05-01T18:22:46.126Z,99.10
2023-05-01T18:25:48.315Z,99.20
2023-05-01T18:28:50.636Z,99.10
2023-05-01T18:31:52.685Z,99.20
2023-05-01T18:34:54.965Z,99.10
2023-05-01T18:37:57.009Z,99.10
2023-05-01T18:40:58.892Z,99.10
2023-05-01T18:44:01.429Z,99.10
2023-05-01T18:47:03.646Z,99.20
2023-05-01T18:50:06.440Z,99.10
2023-05-01T18:53:08.365Z,99.10
2023-05-01T18:56:10.259Z,99.20
2023-05-01T18:59:12.066Z,99.20
2023-05-01T19:02:13.893Z,99.20
2023-05-01T19:05:16.363Z,99.20
2023-05-01T19:08:18.255Z,99.10
2023-05-01T19:11:21.539Z,99.10
2023-05-01T19:14:23.855Z,99.10
2023-05-01T19:17:26.041Z,99.20
2023-05-01T19:20:28.389Z,99.20
2023-05-01T19:23:34.747Z,99.30
2023-05-01T19:26:36.722Z,99.30
2023-05-01T19:29:39.657Z,99.30
2023-05-01T19:32:41.940Z,99.30
2023-05-01T19:35:44.084Z,99.20
2023-05-01T19:38:45.925Z,99.10
2023-05-01T19:41:47.750Z,99.00
2023-05-01T19:44:49.524Z,98.90
2023-05-01T19:47:51.416Z,98.90
2023-05-01T19:50:53.309Z,98.90
2023-05-01T19:53:55.144Z,98.80
2023-05-01T19:56:57.394Z,98.70
2023-05-01T19:59:59.535Z,99.00
2023-05-01T20:03:01.744Z,98.60
2023-05-01T20:06:05.681Z,98.50
2023-05-01T20:09:07.666Z,98.50
2023-05-01T20:12:09.525Z,98.50
2023-05-01T20:15:12.060Z,98.50
2023-05-01T20:18:14.280Z,98.40
2023-05-01T20:21:16.165Z,98.40
2023-05-01T20:24:18.127Z,98.40
2023-05-01T20:27:20.020Z,98.30
2023-05-01T20:30:21.820Z,98.40
2023-05-01T20:33:23.778Z,98.50
2023-05-01T20:36:26.035Z,98.60
2023-05-01T20:39:27.822Z,98.70
2023-05-01T20:42:30.237Z,98.80
2023-05-01T20:45:32.168Z,98.90
2023-05-01T20:48:33.929Z,98.90
2023-05-01T20:51:36.106Z,98.80
2023-05-01T20:54:37.929Z,98.80
2023-05-01T20:57:40.246Z,98.70
2023-05-01T21:00:42.054Z,98.80
2023-05-01T21:03:43.928Z,98.70
2023-05-01T21:06:46.645Z,98.70
2023-05-01T21:09:48.682Z,98.70
2023-05-01T21:12:51.153Z,98.60
2023-05-01T21:15:53.318Z,98.60
2023-05-01T21:18:55.294Z,98.60
2023-05-01T21:21:57.412Z,98.70
2023-05-01T21:25:00.168Z,98.80
2023-05-01T21:28:03.644Z,98.80
2023-05-01T21:31:05.750Z,98.80
2023-05-01T21:34:09.253Z,98.90
2023-05-01T21:37:13.623Z,98.80
2023-05-01T21:40:15.999Z,99.00
2023-05-01T21:43:19.238Z,99.10
2023-05-01T21:46:21.240Z,99.10
2023-05-01T21:49:26.985Z,99.10
2023-05-01T21:52:29.486Z,99.10
2023-05-01T21:55:32.348Z,99.10
2023-05-01T21:58:34.457Z,99.10
2023-05-01T22:01:39.540Z,99.00
2023-05-01T22:04:41.362Z,99.00
2023-05-01T22:07:45.267Z,99.00
2023-05-01T22:10:48.935Z,99.00
2023-05-01T22:13:50.972Z,99.00
2023-05-01T22:16:53.182Z,99.00
2023-05-01T22:19:55.041Z,99.10
2023-05-01T22:22:57.282Z,99.00
2023-05-01T22:26:01.857Z,99.10
2023-05-01T22:29:04.037Z,99.00
2023-05-01T22:32:06.238Z,99.00
2023-05-01T22:35:08.980Z,98.90
2023-05-01T22:38:10.926Z,99.00
2023-05-01T22:41:12.954Z,99.00
2023-05-01T22:44:14.734Z,99.10
2023-05-01T22:47:17.010Z,99.10
2023-05-01T22:50:19.169Z,99.00
2023-05-01T22:53:20.949Z,99.00
2023-05-01T22:56:23.623Z,99.00
2023-05-01T22:59:26.040Z,98.90
2023-05-01T23:02:27.949Z,98.90
2023-05-01T23:05:29.800Z,98.80
2023-05-01T23:08:33.714Z,98.70
2023-05-01T23:11:35.574Z,98.70
2023-05-01T23:14:44.438Z,98.80
2023-05-01T23:17:46.407Z,98.60
2023-05-01T23:20:50.217Z,98.80
2023-05-01T23:23:52.848Z,98.60
2023-05-01T23:26:54.781Z,98.70
2023-05-01T23:29:58.692Z,98.70
2023-05-01T23:33:01.229Z,98.60
2023-05-01T23:36:03.512Z,98.70
2023-05-01T23:39:05.287Z,98.70
2023-05-01T23:42:07.355Z,98.60
2023-05-01T23:45:09.648Z,98.70
2023-05-01T23:48:12.663Z,99.20
2023-05-01T23:51:14.727Z,99.20
2023-05-01T23:54:16.674Z,99.10
2023-05-01T23:57:18.601Z,99.10
